Kaiyo Maru — JNZL — position and weather

sailwx.info

Track history (hours):
 
Tides and Currents Weather Stations Pressure Air Temp Water Temp Dewpoint Dewpoint Depression Visibility Wind Speed Wind Dir Waves Ship Positions

Kaiyo Maru

Last reported at 2017-Dec-22 12:44 UTC. Time now 2018-Jan-19 11:54 UTC.
Position N 35°04' E 140°21'.
Warning: this ship's position is 27 days out of date.

Length 93 m; beam 15 m.

Type: Other ship. MMSI: 431025000.

Date/timePositionNaut miles runAvg speedWind from/ knotsBaromVisibWave heightAir tempDewpointWater temp
2017-Dec-22 12:44N 35°04' E 140°21'1315.2
2017-Dec-22 11:52N 34°56' E 140°08'1715.9
2017-Dec-22 10:47N 34°51' E 139°48'515.9
2017-Dec-22 10:30N 34°53' E 139°43'715.0
2017-Dec-22 10:01N 34°56' E 139°35'915.6
2017-Dec-22 09:25N 34°59' E 139°24'615.3
2017-Dec-22 09:01N 35°02' E 139°17'815.1
2017-Dec-22 08:30N 35°05' E 139°09'3 0.3
2017-Dec-21 22:25N 35°05' E 139°05'3 6.3
2017-Dec-21 22:01N 35°04' E 139°08'510.0
2017-Dec-21 21:31N 35°03' E 139°14'1 1.3
2017-Dec-21 20:58N 35°03' E 139°15'0 0.5
2017-Dec-21 20:28N 35°03' E 139°15'0 0.5
2017-Dec-21 19:52N 35°04' E 139°16'0 0.7
2017-Dec-21 19:28N 35°04' E 139°16'0 0.7
2017-Dec-21 18:55N 35°04' E 139°16'0 0.7
2017-Dec-21 18:22N 35°04' E 139°16'0 0.7
2017-Dec-21 17:52N 35°05' E 139°16'0 0.8
2017-Dec-21 17:28N 35°05' E 139°16'0 0.8
2017-Dec-21 16:55N 35°06' E 139°16'0 0.9
2017-Dec-21 16:25N 35°06' E 139°16'0 1.0
2017-Dec-21 15:55N 35°06' E 139°17'0 0.9
2017-Dec-21 15:28N 35°07' E 139°17'0 1.0
2017-Dec-21 14:58N 35°07' E 139°17'1 1.2
2017-Dec-21 14:30N 35°07' E 139°17'4 7.7
2017-Dec-21 14:01N 35°03' E 139°18'0 0.5
2017-Dec-21 13:30N 35°03' E 139°18'0 0.8
2017-Dec-21 13:00N 35°04' E 139°18'0 0.7
2017-Dec-21 12:30N 35°04' E 139°18'0 0.7
2017-Dec-21 11:57N 35°04' E 139°19'0 0.6
2017-Dec-21 11:30N 35°05' E 139°19'0 0.5
2017-Dec-21 10:51N 35°05' E 139°19'0 0.6
2017-Dec-21 10:29N 35°05' E 139°19'0 0.2
2017-Dec-21 10:01N 35°05' E 139°19'714.3
2017-Dec-21 09:31N 35°06' E 139°28'815.3
2017-Dec-21 09:00N 35°06' E 139°37'612.1
2017-Dec-21 08:30N 35°10' E 139°43'1 1.6
2017-Dec-21 08:00N 35°11' E 139°44'5 9.3
2017-Dec-21 07:30N 35°15' E 139°46'611.9
2017-Dec-21 07:01N 35°20' E 139°43'713.2
2017-Dec-21 06:31N 35°26' E 139°46'713.7
2017-Dec-21 06:01N 35°31' E 139°51'611.6
2017-Dec-21 05:30N 35°36' E 139°47'3 3.9
2017-Dec-21 04:46N 35°39' E 139°46'0 0.0
2017-Dec-20 21:22N 35°39' E 139°46'0 0.0
2017-Dec-20 20:40N 35°39' E 139°46'0 0.0
2017-Dec-20 18:34N 35°39' E 139°46'0 0.0
2017-Dec-20 18:22N 35°39' E 139°46'0 0.0
2017-Dec-20 16:33N 35°39' E 139°46'0 0.0
2017-Dec-20 16:21N 35°39' E 139°46'0 0.0
2017-Dec-20 15:57N 35°39' E 139°46'0 0.0
2017-Dec-20 15:09N 35°39' E 139°46'0 0.0
2017-Dec-20 14:39N 35°39' E 139°46'0 0.0
2017-Dec-20 13:15N 35°39' E 139°46'0 0.0
2017-Dec-20 12:39N 35°39' E 139°46'0 0.0
2017-Dec-20 07:39N 35°39' E 139°46'0 0.0
2017-Dec-20 07:21N 35°39' E 139°46'0 0.0
2017-Dec-20 06:57N 35°39' E 139°46'0 0.0
2017-Dec-20 05:09N 35°39' E 139°46'0 0.1
2017-Dec-20 04:39N 35°39' E 139°46'0 0.0
2017-Dec-20 04:15N 35°39' E 139°46'0 0.1
2017-Dec-20 03:51N 35°39' E 139°46'0 0.1
2017-Dec-20 03:21N 35°39' E 139°46'0 0.0
2017-Dec-20 02:51N 35°39' E 139°46'0 0.0
2017-Dec-20 01:27N 35°39' E 139°46'0 0.0
2017-Dec-20 00:57N 35°39' E 139°46'0 0.0
2017-Dec-19 23:57N 35°39' E 139°46'0 0.0
2017-Dec-19 23:12N 35°39' E 139°46'0 0.0
2017-Dec-19 22:57N 35°39' E 139°46'0 0.0
2017-Dec-19 22:15N 35°39' E 139°46'0 0.0
2017-Dec-19 21:51N 35°39' E 139°46'0 0.0
2017-Dec-19 21:24N 35°39' E 139°46'0 0.0
2017-Dec-19 20:57N 35°39' E 139°46'0 0.0
2017-Dec-19 19:45N 35°39' E 139°46'0 0.0
2017-Dec-19 19:27N 35°39' E 139°46'0 0.0
2017-Dec-19 18:57N 35°39' E 139°46'0 0.0
2017-Dec-19 18:27N 35°39' E 139°46'0 0.0
2017-Dec-19 17:33N 35°39' E 139°46'0 0.0
2017-Dec-19 17:27N 35°39' E 139°46'0 0.0
2017-Dec-19 16:51N 35°39' E 139°46'0 0.0
2017-Dec-19 16:27N 35°39' E 139°46'0 0.1
2017-Dec-19 15:54N 35°39' E 139°46'0 0.1
2017-Dec-19 15:21N 35°39' E 139°46'0 0.1
2017-Dec-19 15:00N 35°39' E 139°46'0 0.1
2017-Dec-19 14:21N 35°39' E 139°46'0 0.0
2017-Dec-19 13:57N 35°39' E 139°46'0 0.0
2017-Dec-19 12:39N 35°39' E 139°46'0 0.0
2017-Dec-19 11:21N 35°39' E 139°46'0 0.0
2017-Dec-19 10:54N 35°39' E 139°46'0 0.0
2017-Dec-19 09:48N 35°39' E 139°46'0 0.0
2017-Dec-19 09:30N 35°39' E 139°46'0 0.0
2017-Dec-19 08:09N 35°39' E 139°46'0 0.0
2017-Dec-19 06:47N 35°39' E 139°46'0 0.0
2017-Dec-19 06:20N 35°39' E 139°46'0 0.0
2017-Dec-19 05:56N 35°39' E 139°46'0 0.0
2017-Dec-19 05:29N 35°39' E 139°46'0 0.0
2017-Dec-19 02:44N 35°39' E 139°46'0 0.0
2017-Dec-19 02:14N 35°39' E 139°46'0 0.0
2017-Dec-19 00:11N 35°39' E 139°46'0 0.0
2017-Dec-18 23:59N 35°39' E 139°46'0 0.0
2017-Dec-18 23:29N 35°39' E 139°46'0 0.0
2017-Dec-18 22:44N 35°39' E 139°46'0 0.0
2017-Dec-18 21:32N 35°39' E 139°46'0 0.1
2017-Dec-18 21:29N 35°39' E 139°46'0 0.0
2017-Dec-18 19:04N 35°39' E 139°46'0 0.0
2017-Dec-18 18:58N 35°39' E 139°46'0 0.0
2017-Dec-18 18:22N 35°39' E 139°46'0 0.0
2017-Dec-18 15:01N 35°39' E 139°46'0 0.0
2017-Dec-18 14:55N 35°39' E 139°46'0 0.0
2017-Dec-18 14:25N 35°39' E 139°46'0 0.0
2017-Dec-18 13:55N 35°39' E 139°46'0 0.0
2017-Dec-18 13:13N 35°39' E 139°46'0 0.0
2017-Dec-18 08:34N 35°39' E 139°46'0 0.0
2017-Dec-18 08:25N 35°39' E 139°46'0 0.0
2017-Dec-18 07:16N 35°39' E 139°46'0 0.0
2017-Dec-18 06:58N 35°39' E 139°46'0 0.0
2017-Dec-18 03:16N 35°39' E 139°46'0 0.0
2017-Dec-18 02:52N 35°39' E 139°46'0 0.0
2017-Dec-18 02:10N 35°39' E 139°46'0 0.0
2017-Dec-18 01:58N 35°39' E 139°46'0 0.0
2017-Dec-18 01:28N 35°39' E 139°46'0 0.0
2017-Dec-18 00:10N 35°39' E 139°46'0 0.0
2017-Dec-17 23:52N 35°39' E 139°46'0 0.0
2017-Dec-17 22:13N 35°39' E 139°46'0 0.0
2017-Dec-17 21:58N 35°39' E 139°46'0 0.0
2017-Dec-17 21:07N 35°39' E 139°46'0 0.0
2017-Dec-17 20:43N 35°39' E 139°46'0 0.1
2017-Dec-17 20:07N 35°39' E 139°46'0 0.0
2017-Dec-17 19:55N 35°39' E 139°46'0 0.1
2017-Dec-17 19:28N 35°39' E 139°46'0 0.0
2017-Dec-17 18:58N 35°39' E 139°46'0 0.1
2017-Dec-17 18:28N 35°39' E 139°46'0 0.0
2017-Dec-17 17:55N 35°39' E 139°46'0 0.1
2017-Dec-17 17:13N 35°39' E 139°46'0 0.0
2017-Dec-17 16:52N 35°39' E 139°46'0 0.1
2017-Dec-17 16:16N 35°39' E 139°46'0 0.1
2017-Dec-17 15:49N 35°39' E 139°46'0 0.0
2017-Dec-17 14:37N 35°39' E 139°46'0 0.0
2017-Dec-17 13:19N 35°39' E 139°46'0 0.1
2017-Dec-17 12:37N 35°39' E 139°46'0 0.0
2017-Dec-17 12:27N 35°39' E 139°46'0 0.0
2017-Dec-17 12:01N 35°39' E 139°46'0 0.0
2017-Dec-17 10:57N 35°39' E 139°46'0 0.0
2017-Dec-17 10:12N 35°39' E 139°46'0 0.2
2017-Dec-17 10:00N 35°39' E 139°46'0 0.1
2017-Dec-17 09:30N 35°39' E 139°46'0 0.0
2017-Dec-17 07:57N 35°39' E 139°46'0 0.0
2017-Dec-17 07:24N 35°39' E 139°46'0 0.0
2017-Dec-17 06:54N 35°39' E 139°46'0 0.0
2017-Dec-17 06:30N 35°39' E 139°46'0 0.0
2017-Dec-17 05:48N 35°39' E 139°46'0 0.0
2017-Dec-17 05:27N 35°39' E 139°46'0 0.0
2017-Dec-17 04:30N 35°39' E 139°46'0 0.1
2017-Dec-17 04:00N 35°39' E 139°46'0 0.1
2017-Dec-17 03:27N 35°39' E 139°46'0 0.0
2017-Dec-17 03:00N 35°39' E 139°46'0 0.1
2017-Dec-17 02:06N 35°39' E 139°46'0 0.3
2017-Dec-17 01:57N 35°39' E 139°46'0 0.0
2017-Dec-17 01:15N 35°39' E 139°46'0 0.1
2017-Dec-17 00:51N 35°39' E 139°46'0 0.0
2017-Dec-17 00:21N 35°39' E 139°46'0 0.1
2017-Dec-17 00:00N 35°39' E 139°46'0 0.1
2017-Dec-16 23:30N 35°39' E 139°46'0 0.1
2017-Dec-16 22:45N 35°39' E 139°46'0 0.1
2017-Dec-16 22:09N 35°39' E 139°46'0 0.3
2017-Dec-16 22:00N 35°39' E 139°46'0 0.0
2017-Dec-16 21:12N 35°39' E 139°46'0 0.0
2017-Dec-16 21:00N 35°39' E 139°46'0 0.1
2017-Dec-16 20:27N 35°39' E 139°46'0 0.0
2017-Dec-16 19:42N 35°39' E 139°46'0 0.1
2017-Dec-16 19:12N 35°39' E 139°46'0 0.2
2017-Dec-16 19:00N 35°39' E 139°46'0 0.0
2017-Dec-16 18:30N 35°39' E 139°46'0 0.0
2017-Dec-16 18:00N 35°39' E 139°46'0 0.0
2017-Dec-16 17:30N 35°39' E 139°46'0 0.0
2017-Dec-16 17:00N 35°39' E 139°46'0 0.0
2017-Dec-16 16:30N 35°39' E 139°46'0 0.0
2017-Dec-16 16:00N 35°39' E 139°46'0 0.0
2017-Dec-16 15:24N 35°39' E 139°46'0 0.0
2017-Dec-16 14:51N 35°39' E 139°46'0 0.0
2017-Dec-16 13:42N 35°39' E 139°46'0 0.0
2017-Dec-16 13:30N 35°39' E 139°46'0 0.0
2017-Dec-16 13:00N 35°39' E 139°46'0 0.0
2017-Dec-16 12:30N 35°39' E 139°46'0 0.0
2017-Dec-16 12:00N 35°39' E 139°46'0 0.0
2017-Dec-16 11:18N 35°39' E 139°46'0 0.0
2017-Dec-16 11:00N 35°39' E 139°46'0 0.0
2017-Dec-16 10:27N 35°39' E 139°46'0 0.0
2017-Dec-16 10:00N 35°39' E 139°46'0 0.0
2017-Dec-16 09:21N 35°39' E 139°46'0 0.0
2017-Dec-16 08:45N 35°39' E 139°46'0 0.0
2017-Dec-16 08:30N 35°39' E 139°46'0 0.0
2017-Dec-16 06:57N 35°39' E 139°46'0 0.0
2017-Dec-16 06:12N 35°39' E 139°46'0 0.0
2017-Dec-16 05:51N 35°39' E 139°46'0 0.0
2017-Dec-16 05:21N 35°39' E 139°46'0 0.0
2017-Dec-16 05:00N 35°39' E 139°46'0 0.0
2017-Dec-16 04:18N 35°39' E 139°46'0 0.0
2017-Dec-16 02:27N 35°39' E 139°46'0 0.0
2017-Dec-16 01:51N 35°39' E 139°46'0 0.0
2017-Dec-16 01:14N 35°39' E 139°46'0 0.0
2017-Dec-16 00:56N 35°39' E 139°46'0 0.0
2017-Dec-16 00:20N 35°39' E 139°46'0 0.0
2017-Dec-15 23:50N 35°39' E 139°46'0 0.0
2017-Dec-15 22:35N 35°39' E 139°46'0 0.0
2017-Dec-15 22:29N 35°39' E 139°46'0 0.0
2017-Dec-15 21:53N 35°39' E 139°46'0 0.1
2017-Dec-15 21:23N 35°39' E 139°46'0 0.1
2017-Dec-15 20:35N 35°39' E 139°46'0 0.0
2017-Dec-15 20:29N 35°39' E 139°46'0 0.0
2017-Dec-15 19:56N 35°39' E 139°46'0 0.0
2017-Dec-15 19:23N 35°39' E 139°46'0 0.0
2017-Dec-15 18:53N 35°39' E 139°46'0 0.0
2017-Dec-15 18:17N 35°39' E 139°46'0 0.0
2017-Dec-15 16:41N 35°39' E 139°46'0 0.0
2017-Dec-15 16:29N 35°39' E 139°46'0 0.0
2017-Dec-15 13:47N 35°39' E 139°46'0 0.0
2017-Dec-15 12:47N 35°39' E 139°46'0 0.0
2017-Dec-15 12:23N 35°39' E 139°46'0 0.0
2017-Dec-15 11:53N 35°39' E 139°46'0 0.0
2017-Dec-15 08:29N 35°39' E 139°46'0 0.0
2017-Dec-15 06:56N 35°39' E 139°46'0 0.0
2017-Dec-15 06:20N 35°39' E 139°46'0 0.0
2017-Dec-15 05:50N 35°39' E 139°46'0 0.0
2017-Dec-15 05:23N 35°39' E 139°46'0 0.0
2017-Dec-15 04:56N 35°39' E 139°46'0 0.0
2017-Dec-15 04:23N 35°39' E 139°46'0 0.0
2017-Dec-15 03:56N 35°39' E 139°46'0 0.0
2017-Dec-15 02:20N 35°39' E 139°46'0 0.0
2017-Dec-15 00:56N 35°39' E 139°46'0 0.0
2017-Dec-15 00:26N 35°39' E 139°46'0 0.0
2017-Dec-14 18:11N 35°39' E 139°46'0 0.0
2017-Dec-14 17:50N 35°39' E 139°46'0 0.0
2017-Dec-14 17:20N 35°39' E 139°46'0 0.0
2017-Dec-14 16:56N 35°39' E 139°46'0 0.0
2017-Dec-14 16:26N 35°39' E 139°46'0 0.0
2017-Dec-14 15:50N 35°39' E 139°46'0 0.0
2017-Dec-14 14:55N 35°39' E 139°46'0 0.0
2017-Dec-14 14:25N 35°39' E 139°46'0 0.0
2017-Dec-14 13:58N 35°39' E 139°46'0 0.0
2017-Dec-14 13:25N 35°39' E 139°46'0 0.0
2017-Dec-14 12:55N 35°39' E 139°46'0 0.0
2017-Dec-14 12:10N 35°39' E 139°46'0 0.0
2017-Dec-14 10:22N 35°39' E 139°46'0 0.0
2017-Dec-14 08:49N 35°39' E 139°46'0 0.1
2017-Dec-14 08:28N 35°39' E 139°46'0 0.0
2017-Dec-14 07:58N 35°39' E 139°46'0 0.0
2017-Dec-14 06:37N 35°39' E 139°46'0 0.0
2017-Dec-14 06:28N 35°39' E 139°46'0 0.0
2017-Dec-14 04:37N 35°39' E 139°46'0 0.0
2017-Dec-14 04:22N 35°39' E 139°46'0 0.0
2017-Dec-14 03:07N 35°39' E 139°46'0 0.0
2017-Dec-14 02:52N 35°39' E 139°46'0 0.0
2017-Dec-14 01:58N 35°39' E 139°46'0 0.0
2017-Dec-14 01:07N 35°39' E 139°46'0 0.0
2017-Dec-14 00:58N 35°39' E 139°46'0 0.0
2017-Dec-14 00:19N 35°39' E 139°46'0 0.0
2017-Dec-13 23:58N 35°39' E 139°46'0 0.0
2017-Dec-13 23:19N 35°39' E 139°46'0 0.0
2017-Dec-13 22:55N 35°39' E 139°46'0 0.0
2017-Dec-13 22:04N 35°39' E 139°46'0 0.0
2017-Dec-13 21:55N 35°39' E 139°46'0 0.0
2017-Dec-13 21:25N 35°39' E 139°46'0 0.0
2017-Dec-13 20:37N 35°39' E 139°46'0 0.0
2017-Dec-13 20:25N 35°39' E 139°46'0 0.0
2017-Dec-13 19:43N 35°39' E 139°46'0 0.0
2017-Dec-13 19:28N 35°39' E 139°46'0 0.0
2017-Dec-13 18:46N 35°39' E 139°46'0 0.0
2017-Dec-13 18:19N 35°39' E 139°46'0 0.0
2017-Dec-13 17:43N 35°39' E 139°46'0 0.0
2017-Dec-13 17:19N 35°39' E 139°46'0 0.0
2017-Dec-13 16:52N 35°39' E 139°46'0 0.0
2017-Dec-13 16:28N 35°39' E 139°46'0 0.0
2017-Dec-13 15:55N 35°39' E 139°46'0 0.0
2017-Dec-13 15:16N 35°39' E 139°46'0 0.0
2017-Dec-13 14:46N 35°39' E 139°46'0 0.0
2017-Dec-13 14:28N 35°39' E 139°46'0 0.0
2017-Dec-13 13:46N 35°39' E 139°46'0 0.0
2017-Dec-13 13:22N 35°39' E 139°46'0 0.0
2017-Dec-13 12:58N 35°39' E 139°46'0 0.0
2017-Dec-13 10:49N 35°39' E 139°46'0 0.0
2017-Dec-13 10:19N 35°39' E 139°46'0 0.0
2017-Dec-13 08:28N 35°39' E 139°46'0 0.0
2017-Dec-13 07:46N 35°39' E 139°46'0 0.0
2017-Dec-13 07:28N 35°39' E 139°46'0 0.0
2017-Dec-13 07:01N 35°39' E 139°46'0 0.0
2017-Dec-13 06:18N 35°39' E 139°46'0 0.0
2017-Dec-13 06:00N 35°39' E 139°46'0 0.0
2017-Dec-13 05:30N 35°39' E 139°46'0 0.0
2017-Dec-13 04:48N 35°39' E 139°46'0 0.0
2017-Dec-13 04:18N 35°39' E 139°46'0 0.0
2017-Dec-13 03:54N 35°39' E 139°46'0 0.0
2017-Dec-13 03:18N 35°39' E 139°46'0 0.0
2017-Dec-13 01:24N 35°39' E 139°46'0 0.0
2017-Dec-13 00:03N 35°39' E 139°46'0 0.0
2017-Dec-13 00:00N 35°39' E 139°46'0 0.0
2017-Dec-12 23:24N 35°39' E 139°46'0 0.0
2017-Dec-12 22:54N 35°39' E 139°46'0 0.0
2017-Dec-12 19:00N 35°39' E 139°46'0 0.0
2017-Dec-12 18:24N 35°39' E 139°46'0 0.0
2017-Dec-12 18:00N 35°39' E 139°46'0 0.0
2017-Dec-12 17:24N 35°39' E 139°46'0 0.0
2017-Dec-12 16:36N 35°39' E 139°46'0 0.1
2017-Dec-12 16:30N 35°39' E 139°46'0 0.0
2017-Dec-12 16:00N 35°39' E 139°46'0 0.0
2017-Dec-12 15:18N 35°39' E 139°46'0 0.0
2017-Dec-12 15:00N 35°39' E 139°46'0 0.0
2017-Dec-12 14:30N 35°39' E 139°46'0 0.0
2017-Dec-12 13:54N 35°39' E 139°46'  
Track history (hours):
 
Tides and Currents Weather Stations Pressure Air Temp Water Temp Dewpoint Dewpoint Depression Visibility Wind Speed Wind Dir Waves Ship Positions

Kaiyo Maru

Last reported at 2017-Dec-22 12:44 UTC. Time now 2018-Jan-19 11:54 UTC.
Position N 35°04' E 140°21'.
Warning: this ship's position is 27 days out of date.

Length 93 m; beam 15 m.

Type: Other ship. MMSI: 431025000.

Date/timePositionNaut miles runAvg speedWind from/ knotsBaromVisibWave heightAir tempDewpointWater temp
2017-Dec-22 12:44N 35°04' E 140°21'1315.2
2017-Dec-22 11:52N 34°56' E 140°08'1715.9
2017-Dec-22 10:47N 34°51' E 139°48'515.9
2017-Dec-22 10:30N 34°53' E 139°43'715.0
2017-Dec-22 10:01N 34°56' E 139°35'915.6
2017-Dec-22 09:25N 34°59' E 139°24'615.3
2017-Dec-22 09:01N 35°02' E 139°17'815.1
2017-Dec-22 08:30N 35°05' E 139°09'3 0.3
2017-Dec-21 22:25N 35°05' E 139°05'3 6.3
2017-Dec-21 22:01N 35°04' E 139°08'510.0
2017-Dec-21 21:31N 35°03' E 139°14'1 1.3
2017-Dec-21 20:58N 35°03' E 139°15'0 0.5
2017-Dec-21 20:28N 35°03' E 139°15'0 0.5
2017-Dec-21 19:52N 35°04' E 139°16'0 0.7
2017-Dec-21 19:28N 35°04' E 139°16'0 0.7
2017-Dec-21 18:55N 35°04' E 139°16'0 0.7
2017-Dec-21 18:22N 35°04' E 139°16'0 0.7
2017-Dec-21 17:52N 35°05' E 139°16'0 0.8
2017-Dec-21 17:28N 35°05' E 139°16'0 0.8
2017-Dec-21 16:55N 35°06' E 139°16'0 0.9
2017-Dec-21 16:25N 35°06' E 139°16'0 1.0
2017-Dec-21 15:55N 35°06' E 139°17'0 0.9
2017-Dec-21 15:28N 35°07' E 139°17'0 1.0
2017-Dec-21 14:58N 35°07' E 139°17'1 1.2
2017-Dec-21 14:30N 35°07' E 139°17'4 7.7
2017-Dec-21 14:01N 35°03' E 139°18'0 0.5
2017-Dec-21 13:30N 35°03' E 139°18'0 0.8
2017-Dec-21 13:00N 35°04' E 139°18'0 0.7
2017-Dec-21 12:30N 35°04' E 139°18'0 0.7
2017-Dec-21 11:57N 35°04' E 139°19'0 0.6
2017-Dec-21 11:30N 35°05' E 139°19'0 0.5
2017-Dec-21 10:51N 35°05' E 139°19'0 0.6
2017-Dec-21 10:29N 35°05' E 139°19'0 0.2
2017-Dec-21 10:01N 35°05' E 139°19'714.3
2017-Dec-21 09:31N 35°06' E 139°28'815.3
2017-Dec-21 09:00N 35°06' E 139°37'612.1
2017-Dec-21 08:30N 35°10' E 139°43'1 1.6
2017-Dec-21 08:00N 35°11' E 139°44'5 9.3
2017-Dec-21 07:30N 35°15' E 139°46'611.9
2017-Dec-21 07:01N 35°20' E 139°43'713.2
2017-Dec-21 06:31N 35°26' E 139°46'713.7
2017-Dec-21 06:01N 35°31' E 139°51'611.6
2017-Dec-21 05:30N 35°36' E 139°47'3 3.9
2017-Dec-21 04:46N 35°39' E 139°46'0 0.0
2017-Dec-20 21:22N 35°39' E 139°46'0 0.0
2017-Dec-20 20:40N 35°39' E 139°46'0 0.0
2017-Dec-20 18:34N 35°39' E 139°46'0 0.0
2017-Dec-20 18:22N 35°39' E 139°46'0 0.0
2017-Dec-20 16:33N 35°39' E 139°46'0 0.0
2017-Dec-20 16:21N 35°39' E 139°46'0 0.0
2017-Dec-20 15:57N 35°39' E 139°46'0 0.0
2017-Dec-20 15:09N 35°39' E 139°46'0 0.0
2017-Dec-20 14:39N 35°39' E 139°46'0 0.0
2017-Dec-20 13:15N 35°39' E 139°46'0 0.0
2017-Dec-20 12:39N 35°39' E 139°46'0 0.0
2017-Dec-20 07:39N 35°39' E 139°46'0 0.0
2017-Dec-20 07:21N 35°39' E 139°46'0 0.0
2017-Dec-20 06:57N 35°39' E 139°46'0 0.0
2017-Dec-20 05:09N 35°39' E 139°46'0 0.1
2017-Dec-20 04:39N 35°39' E 139°46'0 0.0
2017-Dec-20 04:15N 35°39' E 139°46'0 0.1
2017-Dec-20 03:51N 35°39' E 139°46'0 0.1
2017-Dec-20 03:21N 35°39' E 139°46'0 0.0
2017-Dec-20 02:51N 35°39' E 139°46'0 0.0
2017-Dec-20 01:27N 35°39' E 139°46'0 0.0
2017-Dec-20 00:57N 35°39' E 139°46'0 0.0
2017-Dec-19 23:57N 35°39' E 139°46'0 0.0
2017-Dec-19 23:12N 35°39' E 139°46'0 0.0
2017-Dec-19 22:57N 35°39' E 139°46'0 0.0
2017-Dec-19 22:15N 35°39' E 139°46'0 0.0
2017-Dec-19 21:51N 35°39' E 139°46'0 0.0
2017-Dec-19 21:24N 35°39' E 139°46'0 0.0
2017-Dec-19 20:57N 35°39' E 139°46'0 0.0
2017-Dec-19 19:45N 35°39' E 139°46'0 0.0
2017-Dec-19 19:27N 35°39' E 139°46'0 0.0
2017-Dec-19 18:57N 35°39' E 139°46'0 0.0
2017-Dec-19 18:27N 35°39' E 139°46'0 0.0
2017-Dec-19 17:33N 35°39' E 139°46'0 0.0
2017-Dec-19 17:27N 35°39' E 139°46'0 0.0
2017-Dec-19 16:51N 35°39' E 139°46'0 0.0
2017-Dec-19 16:27N 35°39' E 139°46'0 0.1
2017-Dec-19 15:54N 35°39' E 139°46'0 0.1
2017-Dec-19 15:21N 35°39' E 139°46'0 0.1
2017-Dec-19 15:00N 35°39' E 139°46'0 0.1
2017-Dec-19 14:21N 35°39' E 139°46'0 0.0
2017-Dec-19 13:57N 35°39' E 139°46'0 0.0
2017-Dec-19 12:39N 35°39' E 139°46'0 0.0
2017-Dec-19 11:21N 35°39' E 139°46'0 0.0
2017-Dec-19 10:54N 35°39' E 139°46'0 0.0
2017-Dec-19 09:48N 35°39' E 139°46'0 0.0
2017-Dec-19 09:30N 35°39' E 139°46'0 0.0
2017-Dec-19 08:09N 35°39' E 139°46'0 0.0
2017-Dec-19 06:47N 35°39' E 139°46'0 0.0
2017-Dec-19 06:20N 35°39' E 139°46'0 0.0
2017-Dec-19 05:56N 35°39' E 139°46'0 0.0
2017-Dec-19 05:29N 35°39' E 139°46'0 0.0
2017-Dec-19 02:44N 35°39' E 139°46'0 0.0
2017-Dec-19 02:14N 35°39' E 139°46'0 0.0
2017-Dec-19 00:11N 35°39' E 139°46'0 0.0
2017-Dec-18 23:59N 35°39' E 139°46'0 0.0
2017-Dec-18 23:29N 35°39' E 139°46'0 0.0
2017-Dec-18 22:44N 35°39' E 139°46'0 0.0
2017-Dec-18 21:32N 35°39' E 139°46'0 0.1
2017-Dec-18 21:29N 35°39' E 139°46'0 0.0
2017-Dec-18 19:04N 35°39' E 139°46'0 0.0
2017-Dec-18 18:58N 35°39' E 139°46'0 0.0
2017-Dec-18 18:22N 35°39' E 139°46'0 0.0
2017-Dec-18 15:01N 35°39' E 139°46'0 0.0
2017-Dec-18 14:55N 35°39' E 139°46'0 0.0
2017-Dec-18 14:25N 35°39' E 139°46'0 0.0
2017-Dec-18 13:55N 35°39' E 139°46'0 0.0
2017-Dec-18 13:13N 35°39' E 139°46'0 0.0
2017-Dec-18 08:34N 35°39' E 139°46'0 0.0
2017-Dec-18 08:25N 35°39' E 139°46'0 0.0
2017-Dec-18 07:16N 35°39' E 139°46'0 0.0
2017-Dec-18 06:58N 35°39' E 139°46'0 0.0
2017-Dec-18 03:16N 35°39' E 139°46'0 0.0
2017-Dec-18 02:52N 35°39' E 139°46'0 0.0
2017-Dec-18 02:10N 35°39' E 139°46'0 0.0
2017-Dec-18 01:58N 35°39' E 139°46'0 0.0
2017-Dec-18 01:28N 35°39' E 139°46'0 0.0
2017-Dec-18 00:10N 35°39' E 139°46'0 0.0
2017-Dec-17 23:52N 35°39' E 139°46'0 0.0
2017-Dec-17 22:13N 35°39' E 139°46'0 0.0
2017-Dec-17 21:58N 35°39' E 139°46'0 0.0
2017-Dec-17 21:07N 35°39' E 139°46'0 0.0
2017-Dec-17 20:43N 35°39' E 139°46'0 0.1
2017-Dec-17 20:07N 35°39' E 139°46'0 0.0
2017-Dec-17 19:55N 35°39' E 139°46'0 0.1
2017-Dec-17 19:28N 35°39' E 139°46'0 0.0
2017-Dec-17 18:58N 35°39' E 139°46'0 0.1
2017-Dec-17 18:28N 35°39' E 139°46'0 0.0
2017-Dec-17 17:55N 35°39' E 139°46'0 0.1
2017-Dec-17 17:13N 35°39' E 139°46'0 0.0
2017-Dec-17 16:52N 35°39' E 139°46'0 0.1
2017-Dec-17 16:16N 35°39' E 139°46'0 0.1
2017-Dec-17 15:49N 35°39' E 139°46'0 0.0
2017-Dec-17 14:37N 35°39' E 139°46'0 0.0
2017-Dec-17 13:19N 35°39' E 139°46'0 0.1
2017-Dec-17 12:37N 35°39' E 139°46'0 0.0
2017-Dec-17 12:27N 35°39' E 139°46'0 0.0
2017-Dec-17 12:01N 35°39' E 139°46'0 0.0
2017-Dec-17 10:57N 35°39' E 139°46'0 0.0
2017-Dec-17 10:12N 35°39' E 139°46'0 0.2
2017-Dec-17 10:00N 35°39' E 139°46'0 0.1
2017-Dec-17 09:30N 35°39' E 139°46'0 0.0
2017-Dec-17 07:57N 35°39' E 139°46'0 0.0
2017-Dec-17 07:24N 35°39' E 139°46'0 0.0
2017-Dec-17 06:54N 35°39' E 139°46'0 0.0
2017-Dec-17 06:30N 35°39' E 139°46'0 0.0
2017-Dec-17 05:48N 35°39' E 139°46'0 0.0
2017-Dec-17 05:27N 35°39' E 139°46'0 0.0
2017-Dec-17 04:30N 35°39' E 139°46'0 0.1
2017-Dec-17 04:00N 35°39' E 139°46'0 0.1
2017-Dec-17 03:27N 35°39' E 139°46'0 0.0
2017-Dec-17 03:00N 35°39' E 139°46'0 0.1
2017-Dec-17 02:06N 35°39' E 139°46'0 0.3
2017-Dec-17 01:57N 35°39' E 139°46'0 0.0
2017-Dec-17 01:15N 35°39' E 139°46'0 0.1
2017-Dec-17 00:51N 35°39' E 139°46'0 0.0
2017-Dec-17 00:21N 35°39' E 139°46'0 0.1
2017-Dec-17 00:00N 35°39' E 139°46'0 0.1
2017-Dec-16 23:30N 35°39' E 139°46'0 0.1
2017-Dec-16 22:45N 35°39' E 139°46'0 0.1
2017-Dec-16 22:09N 35°39' E 139°46'0 0.3
2017-Dec-16 22:00N 35°39' E 139°46'0 0.0
2017-Dec-16 21:12N 35°39' E 139°46'0 0.0
2017-Dec-16 21:00N 35°39' E 139°46'0 0.1
2017-Dec-16 20:27N 35°39' E 139°46'0 0.0
2017-Dec-16 19:42N 35°39' E 139°46'0 0.1
2017-Dec-16 19:12N 35°39' E 139°46'0 0.2
2017-Dec-16 19:00N 35°39' E 139°46'0 0.0
2017-Dec-16 18:30N 35°39' E 139°46'0 0.0
2017-Dec-16 18:00N 35°39' E 139°46'0 0.0
2017-Dec-16 17:30N 35°39' E 139°46'0 0.0
2017-Dec-16 17:00N 35°39' E 139°46'0 0.0
2017-Dec-16 16:30N 35°39' E 139°46'0 0.0
2017-Dec-16 16:00N 35°39' E 139°46'0 0.0
2017-Dec-16 15:24N 35°39' E 139°46'0 0.0
2017-Dec-16 14:51N 35°39' E 139°46'0 0.0
2017-Dec-16 13:42N 35°39' E 139°46'0 0.0
2017-Dec-16 13:30N 35°39' E 139°46'0 0.0
2017-Dec-16 13:00N 35°39' E 139°46'0 0.0
2017-Dec-16 12:30N 35°39' E 139°46'0 0.0
2017-Dec-16 12:00N 35°39' E 139°46'0 0.0
2017-Dec-16 11:18N 35°39' E 139°46'0 0.0
2017-Dec-16 11:00N 35°39' E 139°46'0 0.0
2017-Dec-16 10:27N 35°39' E 139°46'0 0.0
2017-Dec-16 10:00N 35°39' E 139°46'0 0.0
2017-Dec-16 09:21N 35°39' E 139°46'0 0.0
2017-Dec-16 08:45N 35°39' E 139°46'0 0.0
2017-Dec-16 08:30N 35°39' E 139°46'0 0.0
2017-Dec-16 06:57N 35°39' E 139°46'0 0.0
2017-Dec-16 06:12N 35°39' E 139°46'0 0.0
2017-Dec-16 05:51N 35°39' E 139°46'0 0.0
2017-Dec-16 05:21N 35°39' E 139°46'0 0.0
2017-Dec-16 05:00N 35°39' E 139°46'0 0.0
2017-Dec-16 04:18N 35°39' E 139°46'0 0.0
2017-Dec-16 02:27N 35°39' E 139°46'0 0.0
2017-Dec-16 01:51N 35°39' E 139°46'0 0.0
2017-Dec-16 01:14N 35°39' E 139°46'0 0.0
2017-Dec-16 00:56N 35°39' E 139°46'0 0.0
2017-Dec-16 00:20N 35°39' E 139°46'0 0.0
2017-Dec-15 23:50N 35°39' E 139°46'0 0.0
2017-Dec-15 22:35N 35°39' E 139°46'0 0.0
2017-Dec-15 22:29N 35°39' E 139°46'0 0.0
2017-Dec-15 21:53N 35°39' E 139°46'0 0.1
2017-Dec-15 21:23N 35°39' E 139°46'0 0.1
2017-Dec-15 20:35N 35°39' E 139°46'0 0.0
2017-Dec-15 20:29N 35°39' E 139°46'0 0.0
2017-Dec-15 19:56N 35°39' E 139°46'0 0.0
2017-Dec-15 19:23N 35°39' E 139°46'0 0.0
2017-Dec-15 18:53N 35°39' E 139°46'0 0.0
2017-Dec-15 18:17N 35°39' E 139°46'0 0.0
2017-Dec-15 16:41N 35°39' E 139°46'0 0.0
2017-Dec-15 16:29N 35°39' E 139°46'0 0.0
2017-Dec-15 13:47N 35°39' E 139°46'0 0.0
2017-Dec-15 12:47N 35°39' E 139°46'0 0.0
2017-Dec-15 12:23N 35°39' E 139°46'0 0.0
2017-Dec-15 11:53N 35°39' E 139°46'0 0.0
2017-Dec-15 08:29N 35°39' E 139°46'0 0.0
2017-Dec-15 06:56N 35°39' E 139°46'0 0.0
2017-Dec-15 06:20N 35°39' E 139°46'0 0.0
2017-Dec-15 05:50N 35°39' E 139°46'0 0.0
2017-Dec-15 05:23N 35°39' E 139°46'0 0.0
2017-Dec-15 04:56N 35°39' E 139°46'0 0.0
2017-Dec-15 04:23N 35°39' E 139°46'0 0.0
2017-Dec-15 03:56N 35°39' E 139°46'0 0.0
2017-Dec-15 02:20N 35°39' E 139°46'0 0.0
2017-Dec-15 00:56N 35°39' E 139°46'0 0.0
2017-Dec-15 00:26N 35°39' E 139°46'0 0.0
2017-Dec-14 18:11N 35°39' E 139°46'0 0.0
2017-Dec-14 17:50N 35°39' E 139°46'0 0.0
2017-Dec-14 17:20N 35°39' E 139°46'0 0.0
2017-Dec-14 16:56N 35°39' E 139°46'0 0.0
2017-Dec-14 16:26N 35°39' E 139°46'0 0.0
2017-Dec-14 15:50N 35°39' E 139°46'0 0.0
2017-Dec-14 14:55N 35°39' E 139°46'0 0.0
2017-Dec-14 14:25N 35°39' E 139°46'0 0.0
2017-Dec-14 13:58N 35°39' E 139°46'0 0.0
2017-Dec-14 13:25N 35°39' E 139°46'0 0.0
2017-Dec-14 12:55N 35°39' E 139°46'0 0.0
2017-Dec-14 12:10N 35°39' E 139°46'0 0.0
2017-Dec-14 10:22N 35°39' E 139°46'0 0.0
2017-Dec-14 08:49N 35°39' E 139°46'0 0.1
2017-Dec-14 08:28N 35°39' E 139°46'0 0.0
2017-Dec-14 07:58N 35°39' E 139°46'0 0.0
2017-Dec-14 06:37N 35°39' E 139°46'0 0.0
2017-Dec-14 06:28N 35°39' E 139°46'0 0.0
2017-Dec-14 04:37N 35°39' E 139°46'0 0.0
2017-Dec-14 04:22N 35°39' E 139°46'0 0.0
2017-Dec-14 03:07N 35°39' E 139°46'0 0.0
2017-Dec-14 02:52N 35°39' E 139°46'0 0.0
2017-Dec-14 01:58N 35°39' E 139°46'0 0.0
2017-Dec-14 01:07N 35°39' E 139°46'0 0.0
2017-Dec-14 00:58N 35°39' E 139°46'0 0.0
2017-Dec-14 00:19N 35°39' E 139°46'0 0.0
2017-Dec-13 23:58N 35°39' E 139°46'0 0.0
2017-Dec-13 23:19N 35°39' E 139°46'0 0.0
2017-Dec-13 22:55N 35°39' E 139°46'0 0.0
2017-Dec-13 22:04N 35°39' E 139°46'0 0.0
2017-Dec-13 21:55N 35°39' E 139°46'0 0.0
2017-Dec-13 21:25N 35°39' E 139°46'0 0.0
2017-Dec-13 20:37N 35°39' E 139°46'0 0.0
2017-Dec-13 20:25N 35°39' E 139°46'0 0.0
2017-Dec-13 19:43N 35°39' E 139°46'0 0.0
2017-Dec-13 19:28N 35°39' E 139°46'0 0.0
2017-Dec-13 18:46N 35°39' E 139°46'0 0.0
2017-Dec-13 18:19N 35°39' E 139°46'0 0.0
2017-Dec-13 17:43N 35°39' E 139°46'0 0.0
2017-Dec-13 17:19N 35°39' E 139°46'0 0.0
2017-Dec-13 16:52N 35°39' E 139°46'0 0.0
2017-Dec-13 16:28N 35°39' E 139°46'0 0.0
2017-Dec-13 15:55N 35°39' E 139°46'0 0.0
2017-Dec-13 15:16N 35°39' E 139°46'0 0.0
2017-Dec-13 14:46N 35°39' E 139°46'0 0.0
2017-Dec-13 14:28N 35°39' E 139°46'0 0.0
2017-Dec-13 13:46N 35°39' E 139°46'0 0.0
2017-Dec-13 13:22N 35°39' E 139°46'0 0.0
2017-Dec-13 12:58N 35°39' E 139°46'0 0.0
2017-Dec-13 10:49N 35°39' E 139°46'0 0.0
2017-Dec-13 10:19N 35°39' E 139°46'0 0.0
2017-Dec-13 08:28N 35°39' E 139°46'0 0.0
2017-Dec-13 07:46N 35°39' E 139°46'0 0.0
2017-Dec-13 07:28N 35°39' E 139°46'0 0.0
2017-Dec-13 07:01N 35°39' E 139°46'0 0.0
2017-Dec-13 06:18N 35°39' E 139°46'0 0.0
2017-Dec-13 06:00N 35°39' E 139°46'0 0.0
2017-Dec-13 05:30N 35°39' E 139°46'0 0.0
2017-Dec-13 04:48N 35°39' E 139°46'0 0.0
2017-Dec-13 04:18N 35°39' E 139°46'0 0.0
2017-Dec-13 03:54N 35°39' E 139°46'0 0.0
2017-Dec-13 03:18N 35°39' E 139°46'0 0.0
2017-Dec-13 01:24N 35°39' E 139°46'0 0.0
2017-Dec-13 00:03N 35°39' E 139°46'0 0.0
2017-Dec-13 00:00N 35°39' E 139°46'0 0.0
2017-Dec-12 23:24N 35°39' E 139°46'0 0.0
2017-Dec-12 22:54N 35°39' E 139°46'0 0.0
2017-Dec-12 19:00N 35°39' E 139°46'0 0.0
2017-Dec-12 18:24N 35°39' E 139°46'0 0.0
2017-Dec-12 18:00N 35°39' E 139°46'0 0.0
2017-Dec-12 17:24N 35°39' E 139°46'0 0.0
2017-Dec-12 16:36N 35°39' E 139°46'0 0.1
2017-Dec-12 16:30N 35°39' E 139°46'0 0.0
2017-Dec-12 16:00N 35°39' E 139°46'0 0.0
2017-Dec-12 15:18N 35°39' E 139°46'0 0.0
2017-Dec-12 15:00N 35°39' E 139°46'0 0.0
2017-Dec-12 14:30N 35°39' E 139°46'0 0.0
2017-Dec-12 13:54N 35°39' E 139°46'  

Dump ship's entire track history